Time;durP1;ratioP1;P1;durP2;ratioP2;P2;SDS_P1;SDS_P2;PMS_P1;PMS_P2;Temp;Humidity;BMP_temperature;BMP_pressure;BME280_temperature;BME280_humidity;BME280_pressure;Samples;Min_cycle;Max_cycle;Signal;HPM_P1;HPM_P2
2023/08/05 00:00:32;;;;;;;9.33;3.77;;;;;;;;;;5053272;28;20259;-34
2023/08/05 00:02:58;;;;;;;7.77;4.20;;;;;;;;;;5053138;28;20671;-33
2023/08/05 00:05:23;;;;;;;6.47;3.88;;;;;;;;;;5053861;28;20260;-35
2023/08/05 00:07:50;;;;;;;7.63;3.90;;;;;;;;;;5053325;28;20027;-34
2023/08/05 00:10:15;;;;;;;8.73;3.88;;;;;;;;;;5053296;28;20255;-34
2023/08/05 00:12:40;;;;;;;8.27;4.20;;;;;;;;;;5053597;28;20021;-33
2023/08/05 00:15:06;;;;;;;9.90;4.23;;;;;;;;;;5053006;28;20665;-34
2023/08/05 00:17:31;;;;;;;8.88;3.88;;;;;;;;;;5053309;28;20056;-34
2023/08/05 00:19:56;;;;;;;10.13;4.10;;;;;;;;;;5053292;28;20372;-34
2023/08/05 00:22:22;;;;;;;8.27;4.53;;;;;;;;;;5053016;28;20252;-33
2023/08/05 00:24:47;;;;;;;7.30;4.10;;;;;;;;;;5053419;28;20248;-34
2023/08/05 00:27:12;;;;;;;8.93;4.18;;;;;;;;;;5052826;28;20279;-33
2023/08/05 00:29:37;;;;;;;9.10;4.25;;;;;;;;;;5052713;28;20044;-33
2023/08/05 00:32:03;;;;;;;10.35;4.20;;;;;;;;;;5052547;28;20049;-33
2023/08/05 00:34:28;;;;;;;8.13;4.03;;;;;;;;;;5053296;28;20028;-34
2023/08/05 00:36:53;;;;;;;10.20;4.07;;;;;;;;;;5054504;28;20020;-35
2023/08/05 00:39:18;;;;;;;6.33;4.07;;;;;;;;;;5054697;28;20259;-34
2023/08/05 00:41:43;;;;;;;11.60;4.28;;;;;;;;;;5054727;28;20343;-34
2023/08/05 00:44:09;;;;;;;10.10;4.30;;;;;;;;;;5054985;28;20021;-35
2023/08/05 00:46:34;;;;;;;8.53;4.13;;;;;;;;;;5054438;28;20325;-33
2023/08/05 00:48:59;;;;;;;8.90;4.60;;;;;;;;;;5055883;28;20371;-34
2023/08/05 00:51:25;;;;;;;6.63;3.93;;;;;;;;;;5057468;28;20248;-35
2023/08/05 00:53:50;;;;;;;7.88;4.00;;;;;;;;;;5056302;28;20264;-33
2023/08/05 00:56:15;;;;;;;9.85;4.30;;;;;;;;;;5056596;28;20019;-33
2023/08/05 00:58:42;;;;;;;8.73;4.32;;;;;;;;;;5056181;28;20017;-33
2023/08/05 01:01:08;;;;;;;6.78;4.18;;;;;;;;;;5056165;28;20009;-33
2023/08/05 01:03:33;;;;;;;11.65;4.53;;;;;;;;;;5056394;28;20111;-34
2023/08/05 01:05:59;;;;;;;11.00;4.38;;;;;;;;;;5056354;28;20525;-34
2023/08/05 01:08:24;;;;;;;9.02;4.20;;;;;;;;;;5055957;28;20032;-33
2023/08/05 01:10:49;;;;;;;11.23;4.63;;;;;;;;;;5056524;28;20028;-34
2023/08/05 01:13:15;;;;;;;9.43;4.40;;;;;;;;;;5056261;28;20021;-34
2023/08/05 01:15:40;;;;;;;11.27;4.57;;;;;;;;;;5056220;28;20028;-34
2023/08/05 01:18:07;;;;;;;7.20;4.20;;;;;;;;;;5056121;28;20024;-33
2023/08/05 01:20:37;;;;;;;8.52;4.40;;;;;;;;;;5056140;28;20024;-33
2023/08/05 01:23:07;;;;;;;10.70;5.00;;;;;;;;;;5055721;28;20049;-33
2023/08/05 01:25:33;;;;;;;8.23;4.60;;;;;;;;;;5054461;28;20043;-34
2023/08/05 01:27:59;;;;;;;7.63;4.75;;;;;;;;;;5055566;28;20460;-33
2023/08/05 01:30:25;;;;;;;13.15;5.15;;;;;;;;;;5055763;28;20024;-33
2023/08/05 01:32:51;;;;;;;12.40;5.10;;;;;;;;;;5055611;28;20052;-34
2023/08/05 01:35:18;;;;;;;9.25;4.88;;;;;;;;;;5055838;28;20019;-34
2023/08/05 01:37:43;;;;;;;7.20;4.88;;;;;;;;;;5055534;28;20440;-35
2023/08/05 01:40:08;;;;;;;8.35;5.22;;;;;;;;;;5055679;28;20052;-34
2023/08/05 01:42:33;;;;;;;10.40;4.70;;;;;;;;;;5055892;28;20482;-33
2023/08/05 01:44:59;;;;;;;7.50;4.90;;;;;;;;;;5055803;28;20025;-32
2023/08/05 01:47:24;;;;;;;8.80;5.13;;;;;;;;;;5055086;28;20345;-34
2023/08/05 01:49:49;;;;;;;10.13;5.23;;;;;;;;;;5055521;28;20657;-34
2023/08/05 01:52:14;;;;;;;9.53;5.10;;;;;;;;;;5055217;28;20303;-35
2023/08/05 01:54:39;;;;;;;11.57;5.47;;;;;;;;;;5055435;28;20260;-34
2023/08/05 01:57:05;;;;;;;8.80;5.17;;;;;;;;;;5055156;28;20021;-34
2023/08/05 01:59:30;;;;;;;8.73;5.13;;;;;;;;;;5055006;28;20328;-34
2023/08/05 02:01:55;;;;;;;6.73;4.50;;;;;;;;;;5055355;28;20013;-34
2023/08/05 02:04:20;;;;;;;9.73;5.17;;;;;;;;;;5055088;28;20479;-35
2023/08/05 02:06:45;;;;;;;11.13;6.17;;;;;;;;;;5054788;28;20291;-34
2023/08/05 02:09:11;;;;;;;8.63;5.47;;;;;;;;;;5055236;28;20259;-34
2023/08/05 02:11:36;;;;;;;9.85;5.95;;;;;;;;;;5055116;28;20074;-34
2023/08/05 02:14:01;;;;;;;11.10;6.03;;;;;;;;;;5055112;28;20017;-34
2023/08/05 02:16:26;;;;;;;10.40;5.60;;;;;;;;;;5055073;28;20024;-36
2023/08/05 02:18:52;;;;;;;12.90;6.13;;;;;;;;;;5054746;28;20267;-34
2023/08/05 02:21:17;;;;;;;12.30;6.68;;;;;;;;;;5055270;28;20044;-34
2023/08/05 02:23:42;;;;;;;11.13;6.50;;;;;;;;;;5055445;28;20020;-34
2023/08/05 02:26:07;;;;;;;10.23;6.57;;;;;;;;;;5054840;28;20040;-34
2023/08/05 02:28:33;;;;;;;15.57;6.77;;;;;;;;;;5054551;28;20256;-34
2023/08/05 02:30:58;;;;;;;18.83;7.00;;;;;;;;;;5054692;28;20271;-34
2023/08/05 02:33:23;;;;;;;13.03;6.50;;;;;;;;;;5054485;28;20095;-34
2023/08/05 02:35:48;;;;;;;14.80;6.60;;;;;;;;;;5054914;28;20255;-34
2023/08/05 02:38:14;;;;;;;10.40;6.40;;;;;;;;;;5054352;28;20709;-34
2023/08/05 02:40:39;;;;;;;13.80;6.00;;;;;;;;;;5054570;28;20264;-34
2023/08/05 02:43:04;;;;;;;11.02;6.28;;;;;;;;;;5054280;28;20099;-34
2023/08/05 02:45:29;;;;;;;15.87;6.43;;;;;;;;;;5055033;28;20029;-34
2023/08/05 02:47:55;;;;;;;10.13;6.10;;;;;;;;;;5053939;28;20334;-34
2023/08/05 02:50:20;;;;;;;10.57;5.50;;;;;;;;;;5054696;28;20029;-34
2023/08/05 02:52:45;;;;;;;11.60;6.25;;;;;;;;;;5054602;28;20255;-34
2023/08/05 02:55:10;;;;;;;12.53;5.87;;;;;;;;;;5054258;28;20021;-34
2023/08/05 02:57:35;;;;;;;9.63;5.73;;;;;;;;;;5053527;28;20795;-34
2023/08/05 03:00:03;;;;;;;14.05;6.45;;;;;;;;;;5053953;28;20443;-35
2023/08/05 03:02:28;;;;;;;12.10;5.90;;;;;;;;;;5054200;28;20071;-34
2023/08/05 03:04:53;;;;;;;10.57;5.50;;;;;;;;;;5053941;28;20422;-34
2023/08/05 03:07:18;;;;;;;10.82;5.63;;;;;;;;;;5054047;28;20023;-35
2023/08/05 03:09:44;;;;;;;12.05;5.95;;;;;;;;;;5054071;28;20453;-35
2023/08/05 03:12:09;;;;;;;11.43;5.63;;;;;;;;;;5053739;28;20017;-34
2023/08/05 03:14:34;;;;;;;9.90;5.67;;;;;;;;;;5054277;28;20256;-35
2023/08/05 03:16:59;;;;;;;10.18;5.85;;;;;;;;;;5053712;28;20274;-34
2023/08/05 03:19:25;;;;;;;11.73;5.60;;;;;;;;;;5053676;28;20474;-34
2023/08/05 03:21:50;;;;;;;10.82;6.18;;;;;;;;;;5053828;28;20028;-34
2023/08/05 03:24:15;;;;;;;10.77;5.57;;;;;;;;;;5054151;28;20025;-34
2023/08/05 03:26:40;;;;;;;12.57;5.57;;;;;;;;;;5053482;28;20298;-34
2023/08/05 03:29:05;;;;;;;10.95;5.88;;;;;;;;;;5053528;28;20013;-33
2023/08/05 03:31:31;;;;;;;9.75;5.38;;;;;;;;;;5053430;28;20108;-34
2023/08/05 03:33:56;;;;;;;14.23;6.27;;;;;;;;;;5053785;28;20020;-34
2023/08/05 03:36:21;;;;;;;12.40;6.00;;;;;;;;;;5053975;28;20240;-34
2023/08/05 03:38:46;;;;;;;12.48;5.93;;;;;;;;;;5053409;28;20255;-34
2023/08/05 03:41:11;;;;;;;13.50;6.10;;;;;;;;;;5053386;28;20028;-34
2023/08/05 03:43:37;;;;;;;12.73;6.10;;;;;;;;;;5053922;28;20248;-35
2023/08/05 03:46:02;;;;;;;11.87;6.07;;;;;;;;;;5053167;28;20745;-34
2023/08/05 03:48:27;;;;;;;13.05;5.90;;;;;;;;;;5053526;28;20111;-34
2023/08/05 03:50:52;;;;;;;12.33;6.37;;;;;;;;;;5053603;28;20017;-35
2023/08/05 03:53:17;;;;;;;11.18;6.15;;;;;;;;;;5053444;28;20028;-35
2023/08/05 03:55:43;;;;;;;12.20;6.50;;;;;;;;;;5053253;28;20135;-34
2023/08/05 03:58:08;;;;;;;10.65;6.60;;;;;;;;;;5053464;28;20293;-34
2023/08/05 04:00:34;;;;;;;15.60;6.40;;;;;;;;;;5053174;28;20025;-34
2023/08/05 04:03:00;;;;;;;9.70;5.90;;;;;;;;;;5053067;28;20266;-33
2023/08/05 04:05:25;;;;;;;11.37;6.10;;;;;;;;;;5051866;28;20025;-34
2023/08/05 04:07:50;;;;;;;10.63;6.17;;;;;;;;;;5053417;28;20272;-34
2023/08/05 04:10:19;;;;;;;10.15;6.47;;;;;;;;;;5057444;28;20017;-35
2023/08/05 04:12:44;;;;;;;10.05;6.20;;;;;;;;;;5057065;28;20021;-34
2023/08/05 04:15:13;;;;;;;15.60;7.73;;;;;;;;;;5057552;28;20021;-33
2023/08/05 04:17:38;;;;;;;10.15;6.45;;;;;;;;;;5056983;28;20267;-33
2023/08/05 04:20:04;;;;;;;12.05;7.10;;;;;;;;;;5057227;28;20013;-34
2023/08/05 04:22:30;;;;;;;10.00;6.63;;;;;;;;;;5057313;28;20048;-35
2023/08/05 04:24:57;;;;;;;11.82;6.20;;;;;;;;;;5057196;28;20363;-35
2023/08/05 04:27:22;;;;;;;11.27;6.88;;;;;;;;;;5056767;28;20068;-35
2023/08/05 04:29:48;;;;;;;14.35;7.10;;;;;;;;;;5056769;28;20025;-34
2023/08/05 04:32:13;;;;;;;15.88;7.25;;;;;;;;;;5057009;28;20096;-35
2023/08/05 04:34:38;;;;;;;14.80;7.97;;;;;;;;;;5057031;28;20009;-34
2023/08/05 04:37:17;;;;;;;14.25;7.50;;;;;;;;;;5056639;28;20032;-34
2023/08/05 04:39:43;;;;;;;13.55;7.93;;;;;;;;;;5057379;28;20028;-33
2023/08/05 04:42:08;;;;;;;12.90;7.47;;;;;;;;;;5056894;28;20017;-34
2023/08/05 04:44:33;;;;;;;13.67;7.67;;;;;;;;;;5056509;28;20017;-33
2023/08/05 04:46:58;;;;;;;17.58;7.95;;;;;;;;;;5056261;28;20345;-35
2023/08/05 04:49:23;;;;;;;15.47;8.10;;;;;;;;;;5056957;28;20013;-34
2023/08/05 04:51:48;;;;;;;16.30;8.23;;;;;;;;;;5056406;28;20280;-34
2023/08/05 04:54:14;;;;;;;15.55;8.80;;;;;;;;;;5056327;28;20262;-34
2023/08/05 04:56:39;;;;;;;15.50;8.53;;;;;;;;;;5056296;28;20103;-35
2023/08/05 04:59:04;;;;;;;16.23;8.23;;;;;;;;;;5056488;28;20313;-34
2023/08/05 05:01:29;;;;;;;18.10;8.57;;;;;;;;;;5056168;28;20247;-34
2023/08/05 05:03:55;;;;;;;13.32;7.57;;;;;;;;;;5056638;28;20268;-33
2023/08/05 05:06:20;;;;;;;18.17;8.15;;;;;;;;;;5056030;28;20037;-33
2023/08/05 05:08:45;;;;;;;14.17;7.60;;;;;;;;;;5056332;28;20096;-34
2023/08/05 05:11:10;;;;;;;12.23;7.77;;;;;;;;;;5056278;28;20274;-35
2023/08/05 05:13:36;;;;;;;18.42;7.80;;;;;;;;;;5056025;28;20263;-35
2023/08/05 05:16:02;;;;;;;17.63;8.43;;;;;;;;;;5055984;28;20024;-35
2023/08/05 05:18:27;;;;;;;15.50;8.07;;;;;;;;;;5055812;28;20122;-35
2023/08/05 05:20:54;;;;;;;13.77;7.30;;;;;;;;;;5055839;28;20048;-35
2023/08/05 05:23:19;;;;;;;13.25;7.50;;;;;;;;;;5054496;28;20338;-35
2023/08/05 05:25:45;;;;;;;15.95;7.57;;;;;;;;;;5055620;28;20192;-36
2023/08/05 05:28:10;;;;;;;14.20;7.30;;;;;;;;;;5055822;28;20047;-36
2023/08/05 05:30:35;;;;;;;12.82;7.25;;;;;;;;;;5055768;28;20431;-35
2023/08/05 05:33:01;;;;;;;12.38;6.93;;;;;;;;;;5055786;28;20028;-35
2023/08/05 05:35:26;;;;;;;14.65;7.25;;;;;;;;;;5055453;28;20068;-35
2023/08/05 05:37:51;;;;;;;11.93;6.88;;;;;;;;;;5055521;28;20025;-35
2023/08/05 05:40:16;;;;;;;16.00;6.65;;;;;;;;;;5054634;28;20123;-35
2023/08/05 05:42:41;;;;;;;15.52;7.28;;;;;;;;;;5055031;28;20105;-36
2023/08/05 05:45:07;;;;;;;11.18;6.50;;;;;;;;;;5055813;28;20017;-35
2023/08/05 05:47:32;;;;;;;10.65;5.95;;;;;;;;;;5055345;28;20056;-35
2023/08/05 05:49:57;;;;;;;17.60;6.72;;;;;;;;;;5055913;28;20380;-35
2023/08/05 05:52:23;;;;;;;17.55;6.50;;;;;;;;;;5055385;28;20021;-35
2023/08/05 05:54:48;;;;;;;13.30;6.28;;;;;;;;;;5055433;28;20017;-35
2023/08/05 05:57:13;;;;;;;25.38;6.90;;;;;;;;;;5055346;28;20438;-35
2023/08/05 05:59:39;;;;;;;14.23;6.87;;;;;;;;;;5055043;28;20379;-36
2023/08/05 06:02:05;;;;;;;10.55;6.93;;;;;;;;;;5055175;28;20291;-35
2023/08/05 06:04:30;;;;;;;14.02;7.03;;;;;;;;;;5055209;28;20115;-35
2023/08/05 06:06:55;;;;;;;13.53;7.00;;;;;;;;;;5054849;28;20021;-36
2023/08/05 06:09:20;;;;;;;15.35;7.40;;;;;;;;;;5054992;28;20263;-35
2023/08/05 06:11:46;;;;;;;12.43;7.47;;;;;;;;;;5054809;28;20013;-35
2023/08/05 06:14:11;;;;;;;12.07;6.75;;;;;;;;;;5055297;28;20255;-35
2023/08/05 06:16:37;;;;;;;14.63;7.40;;;;;;;;;;5055028;28;20112;-35
2023/08/05 06:19:02;;;;;;;16.30;7.53;;;;;;;;;;5054945;28;20179;-35
2023/08/05 06:21:27;;;;;;;15.27;6.70;;;;;;;;;;5054846;28;20017;-35
2023/08/05 06:23:52;;;;;;;13.82;6.65;;;;;;;;;;5054774;28;20041;-34
2023/08/05 06:26:18;;;;;;;15.40;7.23;;;;;;;;;;5054413;28;20024;-33
2023/08/05 06:28:43;;;;;;;14.82;7.40;;;;;;;;;;5054991;28;20105;-34
2023/08/05 06:31:08;;;;;;;15.57;7.00;;;;;;;;;;5053491;28;20025;-35
2023/08/05 06:33:33;;;;;;;13.50;6.82;;;;;;;;;;5054337;28;20724;-34
2023/08/05 06:35:58;;;;;;;13.17;6.87;;;;;;;;;;5054234;28;20009;-33
2023/08/05 06:38:26;;;;;;;14.70;7.53;;;;;;;;;;5054450;28;20701;-34
2023/08/05 06:40:51;;;;;;;12.93;7.43;;;;;;;;;;5054159;28;20025;-34
2023/08/05 06:43:17;;;;;;;13.25;7.10;;;;;;;;;;5054158;28;20047;-34
2023/08/05 06:45:42;;;;;;;14.10;6.97;;;;;;;;;;5054092;28;20037;-34
2023/08/05 06:48:07;;;;;;;11.98;6.75;;;;;;;;;;5053865;28;20128;-34
2023/08/05 06:50:33;;;;;;;12.33;6.70;;;;;;;;;;5053995;28;20074;-34
2023/08/05 06:52:58;;;;;;;11.63;6.50;;;;;;;;;;5053946;28;20267;-35
2023/08/05 06:55:23;;;;;;;15.57;7.03;;;;;;;;;;5054228;28;20024;-34
2023/08/05 06:57:48;;;;;;;11.20;6.60;;;;;;;;;;5053839;28;20614;-34
2023/08/05 07:00:14;;;;;;;10.57;6.63;;;;;;;;;;5053802;28;20263;-34
2023/08/05 07:02:39;;;;;;;11.38;6.38;;;;;;;;;;5054361;28;20267;-34
2023/08/05 07:05:04;;;;;;;11.82;6.07;;;;;;;;;;5053810;28;20444;-36
2023/08/05 07:07:32;;;;;;;12.02;5.50;;;;;;;;;;5054233;28;20036;-35
2023/08/05 07:10:01;;;;;;;8.93;4.70;;;;;;;;;;5054047;28;20028;-34
2023/08/05 07:12:27;;;;;;;8.68;5.10;;;;;;;;;;5052368;28;20464;-34
2023/08/05 07:14:53;;;;;;;9.25;4.50;;;;;;;;;;5053780;28;20024;-34
2023/08/05 07:17:18;;;;;;;6.17;4.23;;;;;;;;;;5053570;28;20033;-34
2023/08/05 07:19:43;;;;;;;9.30;4.35;;;;;;;;;;5053820;28;20550;-35
2023/08/05 07:22:08;;;;;;;7.50;3.73;;;;;;;;;;5053582;28;20433;-33
2023/08/05 07:24:34;;;;;;;7.37;3.70;;;;;;;;;;5053723;28;20346;-35
2023/08/05 07:26:59;;;;;;;10.47;3.50;;;;;;;;;;5053624;28;20282;-35
2023/08/05 07:29:24;;;;;;;6.60;3.60;;;;;;;;;;5053379;28;20103;-34
2023/08/05 07:31:49;;;;;;;6.10;3.40;;;;;;;;;;5053217;28;20310;-33
2023/08/05 07:34:15;;;;;;;8.13;3.88;;;;;;;;;;5053327;28;20025;-35
2023/08/05 07:36:43;;;;;;;7.38;3.83;;;;;;;;;;5053572;28;20035;-35
2023/08/05 07:39:08;;;;;;;7.43;3.83;;;;;;;;;;5053566;28;20028;-35
2023/08/05 07:41:33;;;;;;;6.35;3.85;;;;;;;;;;5053175;28;20009;-35
2023/08/05 07:44:00;;;;;;;10.30;3.97;;;;;;;;;;5053240;28;20017;-35
2023/08/05 07:46:26;;;;;;;9.30;4.50;;;;;;;;;;5053172;28;20076;-35
2023/08/05 07:48:55;;;;;;;9.13;4.28;;;;;;;;;;5053763;28;20041;-35
2023/08/05 07:51:20;;;;;;;8.80;5.13;;;;;;;;;;5053424;28;20437;-35
2023/08/05 07:53:47;;;;;;;11.20;5.40;;;;;;;;;;5053097;28;20049;-35
2023/08/05 07:56:14;;;;;;;9.07;5.00;;;;;;;;;;5051861;28;20029;-35
2023/08/05 07:58:42;;;;;;;7.57;5.25;;;;;;;;;;5053313;28;20017;-36
2023/08/05 08:01:07;;;;;;;9.13;5.22;;;;;;;;;;5053303;28;20013;-35
2023/08/05 08:03:33;;;;;;;8.32;4.60;;;;;;;;;;5052906;28;20361;-34
2023/08/05 08:05:59;;;;;;;6.53;4.80;;;;;;;;;;5053577;28;20060;-34
2023/08/05 08:08:24;;;;;;;9.50;4.32;;;;;;;;;;5053239;28;20352;-34
2023/08/05 08:10:49;;;;;;;8.38;4.30;;;;;;;;;;5053325;28;20021;-35
2023/08/05 08:13:14;;;;;;;10.17;4.00;;;;;;;;;;5053311;28;20100;-34
2023/08/05 08:15:39;;;;;;;8.23;4.10;;;;;;;;;;5052657;28;20376;-35
2023/08/05 08:18:05;;;;;;;11.20;4.90;;;;;;;;;;5052309;28;20056;-34
2023/08/05 08:20:30;;;;;;;7.47;4.53;;;;;;;;;;5051770;28;20463;-34
2023/08/05 08:22:55;;;;;;;7.17;4.57;;;;;;;;;;5053563;28;20028;-36
2023/08/05 08:25:20;;;;;;;11.47;4.93;;;;;;;;;;5053342;28;20424;-35
2023/08/05 08:27:45;;;;;;;8.13;5.27;;;;;;;;;;5050658;28;20366;-35
2023/08/05 08:30:12;;;;;;;8.83;4.67;;;;;;;;;;5051761;28;20271;-35
2023/08/05 08:32:37;;;;;;;12.02;5.45;;;;;;;;;;5050802;28;20013;-34
2023/08/05 08:35:03;;;;;;;8.50;4.80;;;;;;;;;;5050744;28;20547;-34
2023/08/05 08:37:28;;;;;;;9.52;4.80;;;;;;;;;;5052518;28;20025;-34
2023/08/05 08:39:53;;;;;;;8.55;4.85;;;;;;;;;;5050850;28;20021;-34
2023/08/05 08:42:19;;;;;;;7.80;4.80;;;;;;;;;;5050883;28;20041;-35
2023/08/05 08:44:45;;;;;;;5.80;4.10;;;;;;;;;;5051307;28;20626;-35
2023/08/05 08:47:10;;;;;;;12.30;4.80;;;;;;;;;;5052879;28;20044;-35
2023/08/05 08:49:36;;;;;;;5.95;3.67;;;;;;;;;;5053026;28;20353;-35
2023/08/05 08:52:02;;;;;;;5.50;4.07;;;;;;;;;;5052954;28;20440;-35
2023/08/05 08:54:28;;;;;;;6.55;4.30;;;;;;;;;;5054411;28;20052;-35
2023/08/05 08:56:53;;;;;;;7.63;4.25;;;;;;;;;;5056614;28;20028;-35
2023/08/05 08:59:19;;;;;;;7.90;4.40;;;;;;;;;;5056546;28;20025;-34
2023/08/05 09:01:45;;;;;;;5.90;4.33;;;;;;;;;;5056485;28;20271;-34
2023/08/05 09:04:11;;;;;;;8.98;4.25;;;;;;;;;;5056416;28;20092;-34
2023/08/05 09:06:38;;;;;;;7.30;4.50;;;;;;;;;;5056321;28;20379;-34
2023/08/05 09:09:03;;;;;;;6.32;4.47;;;;;;;;;;5056578;28;20021;-34
2023/08/05 09:11:29;;;;;;;5.80;4.17;;;;;;;;;;5056054;28;20024;-37
2023/08/05 09:13:54;;;;;;;10.77;4.57;;;;;;;;;;5055931;28;20017;-34
2023/08/05 09:16:19;;;;;;;7.18;4.10;;;;;;;;;;5056227;28;20020;-35
2023/08/05 09:18:54;;;;;;;6.00;3.73;;;;;;;;;;5056504;28;20021;-34
2023/08/05 09:21:22;;;;;;;7.47;4.10;;;;;;;;;;5055882;28;20255;-34
2023/08/05 09:23:47;;;;;;;6.90;3.60;;;;;;;;;;5055858;28;20052;-34
2023/08/05 09:26:13;;;;;;;12.80;3.90;;;;;;;;;;5055755;28;20577;-35
2023/08/05 09:28:39;;;;;;;5.97;4.00;;;;;;;;;;5055640;28;20028;-36
2023/08/05 09:31:11;;;;;;;5.97;4.30;;;;;;;;;;5055895;28;20252;-34
2023/08/05 09:33:36;;;;;;;4.65;3.85;;;;;;;;;;5056194;28;20074;-33
2023/08/05 09:36:07;;;;;;;5.93;3.50;;;;;;;;;;5055628;28;20021;-34
2023/08/05 09:38:32;;;;;;;5.72;3.40;;;;;;;;;;5055629;28;20247;-38
2023/08/05 09:40:59;;;;;;;6.05;3.58;;;;;;;;;;5055515;28;20463;-35
2023/08/05 09:43:28;;;;;;;6.20;3.53;;;;;;;;;;5054734;28;20025;-35
2023/08/05 09:45:53;;;;;;;4.97;3.55;;;;;;;;;;5055042;28;20016;-35
2023/08/05 09:48:19;;;;;;;6.22;3.50;;;;;;;;;;5053943;28;20037;-35
2023/08/05 09:50:45;;;;;;;8.00;3.50;;;;;;;;;;5055297;28;20016;-34
2023/08/05 09:53:14;;;;;;;7.35;3.17;;;;;;;;;;5053914;28;20391;-34
2023/08/05 09:55:39;;;;;;;5.88;3.50;;;;;;;;;;5055101;28;20017;-34
2023/08/05 09:58:07;;;;;;;6.53;3.30;;;;;;;;;;5055499;28;20020;-34
2023/08/05 10:00:33;;;;;;;4.75;3.63;;;;;;;;;;5055449;28;20259;-34
2023/08/05 10:02:59;;;;;;;4.78;3.30;;;;;;;;;;5055857;28;20025;-34
2023/08/05 10:05:26;;;;;;;6.88;3.75;;;;;;;;;;5055654;28;20025;-33
2023/08/05 10:07:53;;;;;;;7.80;3.53;;;;;;;;;;5055107;28;20029;-34
2023/08/05 10:10:21;;;;;;;6.75;3.42;;;;;;;;;;5055219;28;20028;-34
2023/08/05 10:12:51;;;;;;;4.53;3.10;;;;;;;;;;5055453;28;20071;-34
2023/08/05 10:15:30;;;;;;;6.30;3.45;;;;;;;;;;5055036;28;20061;-34
2023/08/05 10:17:55;;;;;;;6.38;3.42;;;;;;;;;;5054807;28;20422;-34
2023/08/05 10:20:20;;;;;;;6.20;2.97;;;;;;;;;;5054755;28;20021;-36
2023/08/05 10:23:06;;;;;;;5.80;3.20;;;;;;;;;;5054982;28;20067;-35
2023/08/05 10:25:37;;;;;;;7.93;3.58;;;;;;;;;;5054874;28;20529;-35
2023/08/05 10:28:02;;;;;;;8.75;3.88;;;;;;;;;;5054497;28;20070;-34
2023/08/05 10:30:28;;;;;;;5.00;3.30;;;;;;;;;;5054685;28;20029;-34
2023/08/05 10:32:54;;;;;;;5.40;3.40;;;;;;;;;;5054697;28;20092;-34
2023/08/05 10:35:38;;;;;;;8.38;3.63;;;;;;;;;;5054751;28;20013;-34
2023/08/05 10:38:04;;;;;;;6.70;3.60;;;;;;;;;;5054848;28;20036;-35
2023/08/05 10:40:36;;;;;;;9.68;3.45;;;;;;;;;;5054272;28;20036;-34
2023/08/05 10:43:01;;;;;;;6.03;3.40;;;;;;;;;;5054356;28;20021;-34
2023/08/05 10:45:27;;;;;;;9.37;4.17;;;;;;;;;;5054144;28;20021;-35
2023/08/05 10:47:52;;;;;;;5.50;4.15;;;;;;;;;;5054062;28;20041;-36
2023/08/05 10:50:18;;;;;;;6.95;4.47;;;;;;;;;;5054241;28;20009;-35
2023/08/05 10:52:44;;;;;;;7.35;4.40;;;;;;;;;;5054115;28;20025;-35
2023/08/05 10:55:11;;;;;;;7.90;4.30;;;;;;;;;;5054078;28;20056;-34
2023/08/05 10:57:39;;;;;;;12.73;4.72;;;;;;;;;;5054369;28;20478;-35
2023/08/05 11:00:07;;;;;;;9.05;4.35;;;;;;;;;;5054507;28;20110;-34
2023/08/05 11:02:32;;;;;;;9.45;4.20;;;;;;;;;;5054276;28;20025;-34
2023/08/05 11:05:06;;;;;;;9.98;4.47;;;;;;;;;;5053901;28;20482;-34
2023/08/05 11:07:32;;;;;;;8.23;4.13;;;;;;;;;;5054391;28;20111;-34
2023/08/05 11:09:57;;;;;;;6.65;4.25;;;;;;;;;;5053758;28;20020;-34
2023/08/05 11:12:24;;;;;;;9.18;4.32;;;;;;;;;;5053817;28;20415;-33
2023/08/05 11:14:49;;;;;;;8.88;4.20;;;;;;;;;;5054172;28;20021;-34
2023/08/05 11:17:14;;;;;;;6.40;3.70;;;;;;;;;;5053255;28;20024;-34
2023/08/05 11:19:52;;;;;;;6.43;3.77;;;;;;;;;;5053687;28;20301;-34
2023/08/05 11:22:22;;;;;;;14.73;3.97;;;;;;;;;;5053110;28;20028;-34
2023/08/05 11:24:53;;;;;;;9.75;3.53;;;;;;;;;;5053132;28;20059;-35
2023/08/05 11:27:18;;;;;;;9.13;3.97;;;;;;;;;;5052925;28;20021;-35
2023/08/05 11:29:43;;;;;;;7.90;3.73;;;;;;;;;;5052976;28;20063;-35
2023/08/05 11:32:09;;;;;;;5.73;3.30;;;;;;;;;;5053008;28;20504;-33
2023/08/05 11:34:34;;;;;;;7.43;3.73;;;;;;;;;;5053176;28;20017;-35
2023/08/05 11:36:59;;;;;;;8.00;3.97;;;;;;;;;;5053201;28;20468;-34
2023/08/05 11:39:24;;;;;;;6.67;3.80;;;;;;;;;;5053332;28;20260;-35
2023/08/05 11:41:50;;;;;;;8.43;3.72;;;;;;;;;;5053275;28;20308;-34
2023/08/05 11:44:18;;;;;;;8.43;3.78;;;;;;;;;;5053254;28;20027;-34
2023/08/05 11:46:44;;;;;;;8.02;3.55;;;;;;;;;;5035232;28;20045;-33
2023/08/05 11:49:10;;;;;;;6.97;3.53;;;;;;;;;;5053495;28;20040;-35
2023/08/05 11:51:45;;;;;;;7.80;3.50;;;;;;;;;;5053513;28;20486;-35
2023/08/05 11:54:10;;;;;;;9.52;3.35;;;;;;;;;;5053518;28;20017;-34
2023/08/05 11:56:36;;;;;;;8.53;3.77;;;;;;;;;;5053694;28;20399;-34
2023/08/05 11:59:01;;;;;;;6.28;3.28;;;;;;;;;;5053180;28;20289;-33
2023/08/05 12:01:26;;;;;;;5.83;2.90;;;;;;;;;;5053184;28;20375;-34
2023/08/05 12:03:51;;;;;;;5.88;3.20;;;;;;;;;;5053149;28;20251;-34
2023/08/05 12:06:17;;;;;;;6.07;3.47;;;;;;;;;;5053486;28;20336;-34
2023/08/05 12:08:42;;;;;;;6.95;3.22;;;;;;;;;;5053334;28;20750;-41
2023/08/05 12:11:08;;;;;;;5.75;3.10;;;;;;;;;;5053322;28;20036;-34
2023/08/05 12:13:34;;;;;;;7.15;3.10;;;;;;;;;;5053100;28;20029;-34
2023/08/05 12:15:59;;;;;;;6.93;3.00;;;;;;;;;;5053745;28;20029;-34
2023/08/05 12:18:25;;;;;;;6.10;2.43;;;;;;;;;;5053609;28;20114;-35
2023/08/05 12:20:50;;;;;;;6.60;2.90;;;;;;;;;;5052976;28;20028;-34
2023/08/05 12:23:15;;;;;;;8.10;2.80;;;;;;;;;;5052958;28;20021;-34
2023/08/05 12:25:41;;;;;;;9.90;2.63;;;;;;;;;;5053704;28;20259;-35
2023/08/05 12:28:06;;;;;;;6.45;2.90;;;;;;;;;;5051555;28;20306;-36
2023/08/05 12:30:31;;;;;;;6.70;2.73;;;;;;;;;;5055688;28;20357;-34
2023/08/05 12:32:58;;;;;;;6.78;2.97;;;;;;;;;;5056702;28;20309;-34
2023/08/05 12:35:23;;;;;;;7.10;2.83;;;;;;;;;;5057032;28;20021;-34
2023/08/05 12:37:49;;;;;;;6.88;2.50;;;;;;;;;;5057033;28;20025;-35
2023/08/05 12:40:14;;;;;;;5.23;2.30;;;;;;;;;;5056630;28;20025;-35
2023/08/05 12:42:39;;;;;;;6.40;2.80;;;;;;;;;;5056822;28;20267;-34
2023/08/05 12:45:05;;;;;;;7.00;2.63;;;;;;;;;;5056530;28;20016;-35
2023/08/05 12:47:31;;;;;;;8.52;2.70;;;;;;;;;;5056404;28;20041;-39
2023/08/05 12:49:56;;;;;;;8.35;2.90;;;;;;;;;;5056727;28;20025;-35
2023/08/05 12:52:21;;;;;;;7.20;2.85;;;;;;;;;;5056984;28;20020;-35
2023/08/05 12:54:46;;;;;;;6.60;2.67;;;;;;;;;;5056515;28;20017;-34
2023/08/05 12:57:12;;;;;;;4.87;2.57;;;;;;;;;;5055820;28;20025;-35
2023/08/05 12:59:37;;;;;;;13.07;2.57;;;;;;;;;;5054201;28;20302;-35
2023/08/05 13:02:02;;;;;;;6.77;3.13;;;;;;;;;;5054098;28;20259;-36
2023/08/05 13:04:28;;;;;;;12.23;2.90;;;;;;;;;;5054301;28;20032;-35
2023/08/05 13:06:53;;;;;;;9.13;2.88;;;;;;;;;;5054035;28;20048;-36
2023/08/05 13:09:18;;;;;;;6.70;3.10;;;;;;;;;;5054087;28;20079;-35
2023/08/05 13:11:46;;;;;;;6.47;2.90;;;;;;;;;;5053994;28;20100;-35
2023/08/05 13:14:12;;;;;;;7.43;3.00;;;;;;;;;;5056402;28;20478;-41
2023/08/05 13:16:37;;;;;;;7.93;3.20;;;;;;;;;;5055907;28;20013;-34
2023/08/05 13:19:03;;;;;;;7.63;3.30;;;;;;;;;;5054800;28;20021;-34
2023/08/05 13:21:28;;;;;;;8.90;3.40;;;;;;;;;;5056823;28;20021;-34
2023/08/05 13:23:53;;;;;;;7.37;3.10;;;;;;;;;;5055910;28;20021;-34
2023/08/05 13:26:18;;;;;;;10.07;3.47;;;;;;;;;;5055771;28;20750;-34
2023/08/05 13:28:43;;;;;;;9.47;3.20;;;;;;;;;;5054435;28;20325;-34
2023/08/05 13:31:08;;;;;;;6.50;3.13;;;;;;;;;;5055911;28;20309;-34
2023/08/05 13:33:34;;;;;;;8.97;3.23;;;;;;;;;;5055651;28;20525;-33
2023/08/05 13:35:59;;;;;;;6.85;3.30;;;;;;;;;;5055895;28;20017;-34
2023/08/05 13:38:24;;;;;;;8.00;3.30;;;;;;;;;;5055630;28;20021;-34
2023/08/05 13:40:50;;;;;;;9.20;3.67;;;;;;;;;;5055432;28;20263;-34
2023/08/05 13:43:15;;;;;;;8.70;3.53;;;;;;;;;;5055435;28;20463;-34
2023/08/05 13:45:46;;;;;;;6.03;3.90;;;;;;;;;;5055504;28;20372;-34
2023/08/05 13:48:12;;;;;;;8.82;3.60;;;;;;;;;;5055257;28;20291;-34
2023/08/05 13:50:37;;;;;;;11.20;3.90;;;;;;;;;;5055662;28;20035;-34
2023/08/05 13:53:02;;;;;;;9.83;4.00;;;;;;;;;;5055584;28;20255;-35
2023/08/05 13:55:27;;;;;;;7.80;3.70;;;;;;;;;;5055282;28;20408;-34
2023/08/05 13:57:52;;;;;;;8.00;3.77;;;;;;;;;;5055776;28;20264;-34
2023/08/05 14:00:18;;;;;;;8.27;3.90;;;;;;;;;;5055475;28;20347;-34
2023/08/05 14:02:43;;;;;;;9.27;4.40;;;;;;;;;;5055627;28;20252;-36
2023/08/05 14:05:08;;;;;;;8.10;3.90;;;;;;;;;;5055423;28;20025;-34
2023/08/05 14:07:33;;;;;;;6.90;3.67;;;;;;;;;;5055543;28;20290;-34
2023/08/05 14:09:58;;;;;;;6.97;3.80;;;;;;;;;;5055020;28;20024;-34
2023/08/05 14:12:24;;;;;;;12.40;4.50;;;;;;;;;;5054986;28;20017;-34
2023/08/05 14:14:49;;;;;;;9.43;3.63;;;;;;;;;;5054922;28;20663;-34
2023/08/05 14:17:14;;;;;;;11.00;4.07;;;;;;;;;;5055411;28;20049;-34
2023/08/05 14:19:39;;;;;;;9.03;4.27;;;;;;;;;;5054809;28;20277;-36
2023/08/05 14:22:04;;;;;;;7.73;3.93;;;;;;;;;;5055094;28;20255;-35
2023/08/05 14:24:30;;;;;;;12.73;4.10;;;;;;;;;;5054709;28;20313;-34
2023/08/05 14:26:55;;;;;;;9.03;4.03;;;;;;;;;;5054619;28;20279;-35
2023/08/05 14:29:20;;;;;;;7.68;3.78;;;;;;;;;;5054618;28;20289;-35